Time;durP1;ratioP1;P1;durP2;ratioP2;P2;SDS_P1;SDS_P2;PMS_P1;PMS_P2;Temp;Humidity;BMP_temperature;BMP_pressure;BME280_temperature;BME280_humidity;BME280_pressure;Samples;Min_cycle;Max_cycle;Signal;HPM_P1;HPM_P2
2022/04/10 00:00:01;;;;;;;10.73;4.30;;;;;;;5.02;100.00;96336.53;5066340;28;20064;-46
2022/04/10 00:02:29;;;;;;;5.60;4.20;;;;;;;4.79;100.00;96343.47;5067164;28;20095;-50
2022/04/10 00:04:59;;;;;;;4.15;3.75;;;;;;;4.77;100.00;96342.72;5067887;28;20060;-47
2022/04/10 00:07:27;;;;;;;7.00;4.50;;;;;;;4.74;100.00;96340.34;5065311;28;20163;-48
2022/04/10 00:09:55;;;;;;;6.45;4.43;;;;;;;4.69;100.00;96345.91;5065892;28;20080;-52
2022/04/10 00:12:23;;;;;;;6.25;4.93;;;;;;;4.64;100.00;96339.34;5063281;28;20061;-48
2022/04/10 00:14:51;;;;;;;8.50;4.10;;;;;;;4.69;100.00;96345.91;5068422;28;20459;-46
2022/04/10 00:17:20;;;;;;;6.00;3.92;;;;;;;4.39;100.00;96343.72;5064635;28;20065;-48
2022/04/10 00:19:48;;;;;;;4.00;3.70;;;;;;;4.36;100.00;96343.09;5066323;28;20834;-45
2022/04/10 00:22:17;;;;;;;6.45;4.47;;;;;;;4.36;100.00;96346.53;5068098;28;20068;-51
2022/04/10 00:24:46;;;;;;;6.53;4.63;;;;;;;4.35;100.00;96339.66;5063903;28;20064;-50
2022/04/10 00:27:15;;;;;;;6.18;4.25;;;;;;;4.17;100.00;96343.59;5066702;28;20059;-48
2022/04/10 00:29:43;;;;;;;5.53;4.07;;;;;;;4.26;100.00;96341.13;5067400;28;20067;-46
2022/04/10 00:32:11;;;;;;;6.47;3.90;;;;;;;4.29;100.00;96353.13;5065446;28;20061;-53
2022/04/10 00:34:39;;;;;;;7.45;4.60;;;;;;;4.41;100.00;96343.63;5066521;28;20197;-47
2022/04/10 00:37:08;;;;;;;7.80;4.07;;;;;;;4.17;100.00;96351.41;5071167;28;20522;-47
2022/04/10 00:39:37;;;;;;;5.50;3.88;;;;;;;4.20;100.00;96352.03;5062971;28;20481;-51
2022/04/10 00:42:06;;;;;;;5.53;4.15;;;;;;;4.36;100.00;96343.94;5064236;28;20068;-51
2022/04/10 00:44:35;;;;;;;6.63;3.90;;;;;;;4.24;100.00;96347.44;5064146;28;20072;-47
2022/04/10 00:47:05;;;;;;;4.72;4.15;;;;;;;4.29;100.00;96353.13;5068599;28;20064;-52
2022/04/10 00:49:33;;;;;;;4.57;4.18;;;;;;;4.35;100.00;96352.72;5067710;28;20094;-50
2022/04/10 00:52:02;;;;;;;6.03;4.32;;;;;;;4.40;100.00;96349.75;5068158;28;20091;-48
2022/04/10 00:54:30;;;;;;;5.03;4.10;;;;;;;4.37;100.00;96352.59;5064738;28;20979;-51
2022/04/10 00:57:01;;;;;;;6.45;4.18;;;;;;;4.33;100.00;96349.38;5069829;28;20435;-47
2022/04/10 00:59:30;;;;;;;4.38;3.90;;;;;;;4.36;100.00;96353.53;5066531;28;20060;-48
2022/04/10 01:01:58;;;;;;;4.82;3.67;;;;;;;4.47;100.00;96351.00;5066939;28;20060;-47
2022/04/10 01:04:42;;;;;;;5.45;4.30;;;;;;;4.38;100.00;96349.88;5067620;28;20077;-47
2022/04/10 01:07:13;;;;;;;6.45;3.88;;;;;;;4.27;100.00;96355.03;5064549;28;20064;-45
2022/04/10 01:09:41;;;;;;;6.63;4.18;;;;;;;4.23;100.00;96354.44;5063714;28;20103;-46
2022/04/10 01:12:12;;;;;;;6.97;4.18;;;;;;;4.16;100.00;96347.13;5060257;28;20156;-46
2022/04/10 01:14:41;;;;;;;4.50;3.80;;;;;;;4.08;100.00;96352.03;5063683;28;20068;-49
2022/04/10 01:17:10;;;;;;;8.73;4.30;;;;;;;4.11;100.00;96349.22;5061202;28;20439;-48
2022/04/10 01:19:39;;;;;;;4.75;4.10;;;;;;;4.12;100.00;96354.31;5061205;28;20143;-53
2022/04/10 01:22:08;;;;;;;5.13;4.18;;;;;;;4.08;100.00;96358.09;5063806;28;20084;-49
2022/04/10 01:24:38;;;;;;;4.75;4.22;;;;;;;4.00;100.00;96353.41;5062005;28;20485;-54
2022/04/10 01:27:07;;;;;;;5.40;4.45;;;;;;;3.85;100.00;96359.69;5064572;28;20123;-49
2022/04/10 01:29:35;;;;;;;6.28;5.00;;;;;;;3.95;100.00;96358.09;5061953;28;20110;-46
2022/04/10 01:32:04;;;;;;;7.05;4.72;;;;;;;3.90;100.00;96362.00;5061775;28;20060;-47
2022/04/10 01:34:33;;;;;;;7.80;4.57;;;;;;;4.05;100.00;96360.91;5061002;28;20685;-48
2022/04/10 01:37:03;;;;;;;8.15;4.60;;;;;;;3.83;100.00;96371.19;5062901;28;20084;-49
2022/04/10 01:39:31;;;;;;;5.85;4.18;;;;;;;3.87;100.00;96372.63;5060493;28;20691;-48
2022/04/10 01:42:00;;;;;;;6.30;4.43;;;;;;;3.70;100.00;96377.22;5064138;28;20489;-46
2022/04/10 01:44:29;;;;;;;5.80;4.22;;;;;;;3.71;100.00;96368.44;5062371;28;20438;-44
2022/04/10 01:46:57;;;;;;;6.95;4.90;;;;;;;3.67;100.00;96380.03;5062908;28;20837;-50
2022/04/10 01:49:25;;;;;;;4.88;4.25;;;;;;;3.65;100.00;96379.31;5062970;28;20083;-45
2022/04/10 01:51:53;;;;;;;8.15;4.80;;;;;;;3.74;100.00;96376.06;5065118;28;21431;-47
2022/04/10 01:54:22;;;;;;;7.25;4.82;;;;;;;3.73;100.00;96377.03;5062670;28;20076;-53
2022/04/10 01:56:50;;;;;;;7.65;4.85;;;;;;;3.77;100.00;96373.25;5062942;28;20065;-47
2022/04/10 01:59:19;;;;;;;6.13;4.93;;;;;;;3.74;100.00;96383.06;5053512;28;20067;-44
2022/04/10 02:01:48;;;;;;;5.70;4.85;;;;;;;3.83;100.00;96381.63;5041903;28;20079;-48
2022/04/10 02:04:17;;;;;;;8.55;4.20;;;;;;;3.78;100.00;96374.91;5061321;28;20084;-48
2022/04/10 02:06:45;;;;;;;7.22;5.03;;;;;;;3.83;100.00;96379.84;5064000;28;20067;-45
2022/04/10 02:09:13;;;;;;;5.60;4.93;;;;;;;3.96;100.00;96378.06;5064878;28;20068;-46
2022/04/10 02:11:41;;;;;;;4.65;4.15;;;;;;;3.86;100.00;96376.19;5062069;28;20467;-47
2022/04/10 02:14:10;;;;;;;6.60;5.07;;;;;;;3.96;100.00;96374.63;5068337;28;20522;-47
2022/04/10 02:16:39;;;;;;;5.88;4.43;;;;;;;3.91;100.00;96389.75;5065349;28;20084;-51
2022/04/10 02:19:08;;;;;;;8.17;5.40;;;;;;;3.98;100.00;96381.38;5065978;28;20084;-50
2022/04/10 02:21:37;;;;;;;6.82;4.68;;;;;;;3.85;100.00;96384.94;5062231;28;20080;-49
2022/04/10 02:24:06;;;;;;;7.97;5.20;;;;;;;3.79;100.00;96375.78;5063891;28;20537;-48
2022/04/10 02:26:34;;;;;;;9.00;4.70;;;;;;;3.97;100.00;96387.53;5063129;28;20075;-47
2022/04/10 02:29:02;;;;;;;6.30;4.90;;;;;;;4.00;100.00;96389.94;5065985;28;20561;-49
2022/04/10 02:31:31;;;;;;;5.88;4.47;;;;;;;3.76;100.00;96387.25;5060188;28;20079;-45
2022/04/10 02:34:01;;;;;;;8.45;4.65;;;;;;;4.13;100.00;96389.06;5062495;28;20113;-49
2022/04/10 02:36:29;;;;;;;6.20;5.25;;;;;;;3.99;100.00;96390.91;5062783;28;20056;-51
2022/04/10 02:38:57;;;;;;;6.88;4.72;;;;;;;4.04;100.00;96394.00;5060385;28;20079;-48
2022/04/10 02:41:25;;;;;;;6.82;5.30;;;;;;;4.43;100.00;96380.88;5062686;28;20083;-49
2022/04/10 02:43:53;;;;;;;7.93;4.97;;;;;;;3.97;100.00;96387.53;5068806;28;20064;-46
2022/04/10 02:46:22;;;;;;;6.35;5.40;;;;;;;3.72;100.00;96387.56;5061229;28;20094;-50
2022/04/10 02:48:50;;;;;;;7.85;5.10;;;;;;;3.98;100.00;96393.59;5063452;28;20060;-49
2022/04/10 02:51:20;;;;;;;7.47;5.22;;;;;;;4.02;100.00;96393.25;5065348;28;20041;-46
2022/04/10 02:53:48;;;;;;;5.22;4.40;;;;;;;3.87;100.00;96396.94;5061694;28;20066;-45
2022/04/10 02:56:16;;;;;;;8.48;5.47;;;;;;;3.71;100.00;96399.75;5066738;28;20057;-48
2022/04/10 02:58:44;;;;;;;5.50;4.57;;;;;;;3.61;100.00;96409.13;5062157;28;20080;-49
2022/04/10 03:01:13;;;;;;;5.95;5.38;;;;;;;3.75;100.00;96398.63;5061709;28;20059;-46
2022/04/10 03:03:41;;;;;;;8.63;5.38;;;;;;;3.96;100.00;96403.31;5062701;28;20072;-48
2022/04/10 03:06:09;;;;;;;5.57;4.50;;;;;;;3.63;100.00;96403.81;5066330;28;20068;-48
2022/04/10 03:08:38;;;;;;;6.10;5.18;;;;;;;3.85;100.00;96411.84;5060538;28;20080;-48
2022/04/10 03:11:07;;;;;;;9.90;5.68;;;;;;;3.71;100.00;96404.13;5068032;28;20060;-51
2022/04/10 03:13:35;;;;;;;8.18;5.00;;;;;;;3.75;100.00;96397.75;5062116;28;20099;-46
2022/04/10 03:16:03;;;;;;;6.90;5.60;;;;;;;3.74;100.00;96409.16;5062094;28;20128;-46
2022/04/10 03:18:32;;;;;;;4.93;4.50;;;;;;;3.62;100.00;96404.78;5063574;28;20064;-44
2022/04/10 03:21:00;;;;;;;7.18;5.53;;;;;;;3.83;100.00;96402.47;5064846;28;20483;-48
2022/04/10 03:23:28;;;;;;;6.00;4.82;;;;;;;3.70;100.00;96405.91;5064279;28;20072;-49
2022/04/10 03:25:58;;;;;;;5.25;4.22;;;;;;;3.51;100.00;96410.69;5063965;28;20056;-46
2022/04/10 03:28:26;;;;;;;9.63;5.85;;;;;;;3.74;100.00;96411.75;5062431;28;20083;-48
2022/04/10 03:30:54;;;;;;;11.27;5.95;;;;;;;3.78;100.00;96410.59;5061321;28;21281;-46
2022/04/10 03:33:23;;;;;;;8.82;5.70;;;;;;;3.87;100.00;96412.59;5067082;28;20075;-48
2022/04/10 03:35:53;;;;;;;5.88;4.53;;;;;;;3.65;100.00;96409.75;5053790;28;20061;-52
2022/04/10 03:38:21;;;;;;;6.53;4.57;;;;;;;3.57;100.00;96416.31;5044508;28;20416;-46
2022/04/10 03:40:49;;;;;;;5.43;4.90;;;;;;;3.50;100.00;96415.06;5047501;28;20057;-43
2022/04/10 03:43:20;;;;;;;8.23;5.40;;;;;;;3.59;100.00;96416.22;5046358;28;20083;-49
2022/04/10 03:45:48;;;;;;;7.65;5.53;;;;;;;3.56;100.00;96419.88;5060774;28;20680;-44
2022/04/10 03:48:16;;;;;;;6.07;5.05;;;;;;;3.59;100.00;96420.63;5068976;28;20067;-45
2022/04/10 03:50:44;;;;;;;7.32;4.53;;;;;;;3.33;100.00;96423.16;5069769;28;20068;-51
2022/04/10 03:53:13;;;;;;;5.03;4.20;;;;;;;3.45;100.00;96421.53;5070646;28;20064;-52
2022/04/10 03:55:41;;;;;;;6.45;5.55;;;;;;;3.52;100.00;96428.00;5067178;28;20151;-53
2022/04/10 03:58:09;;;;;;;5.60;5.03;;;;;;;3.53;100.00;96433.13;5066894;28;20080;-46
2022/04/10 04:00:39;;;;;;;7.18;5.65;;;;;;;3.61;100.00;96429.16;5065602;28;20541;-53
2022/04/10 04:03:07;;;;;;;7.43;4.72;;;;;;;3.56;100.00;96432.91;5068970;28;20064;-51
2022/04/10 04:05:36;;;;;;;5.70;4.55;;;;;;;3.55;100.00;96436.47;5070568;28;20079;-52
2022/04/10 04:08:04;;;;;;;8.13;5.32;;;;;;;3.59;100.00;96434.50;5072286;28;20072;-50
2022/04/10 04:10:34;;;;;;;5.22;4.72;;;;;;;3.51;100.00;96440.22;5070806;28;20083;-47
2022/04/10 04:13:02;;;;;;;6.80;5.40;;;;;;;3.45;100.00;96442.41;5071507;28;20084;-50
2022/04/10 04:15:30;;;;;;;8.57;5.20;;;;;;;3.52;100.00;96441.88;5068445;28;20060;-49
2022/04/10 04:18:00;;;;;;;6.88;4.72;;;;;;;3.55;100.00;96441.69;5053165;28;20081;-45
2022/04/10 04:20:28;;;;;;;6.70;5.13;;;;;;;3.56;100.00;96443.34;5055549;28;20063;-47
2022/04/10 04:22:57;;;;;;;5.15;4.70;;;;;;;3.44;100.00;96444.16;5070041;28;20494;-50
2022/04/10 04:25:25;;;;;;;5.80;4.63;;;;;;;3.48;100.00;96450.84;5070973;28;20084;-49
2022/04/10 04:27:53;;;;;;;7.45;5.15;;;;;;;3.61;100.00;96442.19;5071173;28;20522;-48
2022/04/10 04:30:22;;;;;;;7.82;4.85;;;;;;;3.54;100.00;96450.44;5070287;28;20059;-44
2022/04/10 04:32:51;;;;;;;7.70;5.65;;;;;;;3.63;100.00;96455.97;5070377;28;20068;-47
2022/04/10 04:35:20;;;;;;;6.40;5.30;;;;;;;3.59;100.00;96457.13;5071599;28;20074;-52
2022/04/10 04:37:49;;;;;;;6.88;5.70;;;;;;;3.71;100.00;96464.94;5070621;28;20075;-44
2022/04/10 04:40:17;;;;;;;8.80;5.53;;;;;;;3.61;100.00;96463.88;5072468;28;20777;-48
2022/04/10 04:42:45;;;;;;;7.03;5.63;;;;;;;3.60;100.00;96470.03;5067872;28;20060;-49
2022/04/10 04:45:13;;;;;;;7.80;5.63;;;;;;;3.95;100.00;96469.47;5070122;28;20067;-50
2022/04/10 04:47:42;;;;;;;7.00;5.20;;;;;;;3.90;100.00;96471.56;5066699;28;20529;-46
2022/04/10 04:50:10;;;;;;;9.07;5.63;;;;;;;4.03;100.00;96473.22;5063916;28;20533;-50
2022/04/10 04:52:40;;;;;;;7.82;5.57;;;;;;;4.12;100.00;96482.19;5067253;28;20083;-47
2022/04/10 04:55:09;;;;;;;10.70;5.85;;;;;;;4.23;100.00;96478.84;5068700;28;20659;-51
2022/04/10 04:57:37;;;;;;;6.30;5.50;;;;;;;4.25;100.00;96482.19;5069114;28;20075;-52
2022/04/10 05:00:07;;;;;;;5.07;4.63;;;;;;;4.08;100.00;96478.13;5068658;28;20068;-47
2022/04/10 05:02:35;;;;;;;5.90;5.27;;;;;;;4.05;100.00;96484.38;5072972;28;20069;-49
2022/04/10 05:05:04;;;;;;;7.20;5.78;;;;;;;4.35;100.00;96483.22;5065037;28;20072;-50
2022/04/10 05:07:32;;;;;;;9.23;5.75;;;;;;;4.34;100.00;96488.56;5061787;28;20083;-47
2022/04/10 05:10:02;;;;;;;9.23;5.03;;;;;;;4.00;100.00;96491.69;5041981;28;20073;-50
2022/04/10 05:12:32;;;;;;;9.15;5.85;;;;;;;4.21;100.00;96494.63;5043894;28;20068;-46
2022/04/10 05:15:00;;;;;;;8.20;5.57;;;;;;;4.40;100.00;96498.56;5061524;28;20063;-46
2022/04/10 05:17:29;;;;;;;6.05;4.60;;;;;;;4.24;100.00;96499.63;5070118;28;20032;-47
2022/04/10 05:19:57;;;;;;;5.38;4.88;;;;;;;4.33;100.00;96508.59;5068462;28;20075;-50
2022/04/10 05:22:25;;;;;;;7.70;5.60;;;;;;;4.41;100.00;96505.50;5065455;28;20079;-47
2022/04/10 05:25:00;;;;;;;6.15;5.55;;;;;;;4.56;100.00;96509.63;5042607;28;21626;-51
2022/04/10 05:27:29;;;;;;;8.63;5.70;;;;;;;4.76;100.00;96498.63;5063082;28;20462;-49
2022/04/10 05:29:58;;;;;;;8.00;5.40;;;;;;;4.84;100.00;96510.31;5066069;28;20633;-48
2022/04/10 05:32:26;;;;;;;7.60;5.53;;;;;;;4.70;100.00;96508.69;5069510;28;20529;-49
2022/04/10 05:34:54;;;;;;;7.75;5.65;;;;;;;4.51;100.00;96514.34;5065236;28;20427;-47
2022/04/10 05:37:22;;;;;;;6.43;5.25;;;;;;;4.92;100.00;96518.44;5070127;28;20075;-47
2022/04/10 05:39:50;;;;;;;6.28;5.35;;;;;;;5.02;100.00;96519.47;5063625;28;20059;-50
2022/04/10 05:42:19;;;;;;;9.02;5.90;;;;;;;5.02;100.00;96527.31;5045485;28;20040;-52
2022/04/10 05:44:48;;;;;;;6.03;5.20;;;;;;;4.90;100.00;96528.19;5042630;28;21567;-48
2022/04/10 05:47:16;;;;;;;6.63;5.60;;;;;;;5.10;100.00;96540.69;5050835;28;20048;-47
2022/04/10 05:49:45;;;;;;;7.53;5.50;;;;;;;5.15;100.00;96537.72;5068534;28;20080;-46
2022/04/10 05:52:13;;;;;;;7.32;5.75;;;;;;;5.00;100.00;96548.34;5067909;28;20079;-46
2022/04/10 05:54:41;;;;;;;5.30;4.80;;;;;;;5.00;100.00;96556.16;5062189;28;20068;-46
2022/04/10 05:57:09;;;;;;;6.00;5.40;;;;;;;5.13;100.00;96545.69;5069579;28;20060;-49
2022/04/10 05:59:37;;;;;;;5.78;4.78;;;;;;;4.87;100.00;96550.13;5066609;28;20459;-50
2022/04/10 06:02:07;;;;;;;5.60;5.10;;;;;;;5.13;100.00;96552.69;5069748;28;20569;-51
2022/04/10 06:04:36;;;;;;;6.15;4.82;;;;;;;4.55;100.00;96554.97;5068080;28;20091;-53
2022/04/10 06:07:05;;;;;;;5.70;4.68;;;;;;;4.96;100.00;96573.00;5071886;28;20076;-47
2022/04/10 06:09:33;;;;;;;5.05;4.53;;;;;;;4.85;100.00;96570.31;5062257;28;20079;-44
2022/04/10 06:12:01;;;;;;;8.15;5.95;;;;;;;5.03;100.00;96577.81;5067052;28;20076;-47
2022/04/10 06:14:29;;;;;;;8.55;5.75;;;;;;;4.83;100.00;96573.97;5064313;28;20094;-44
2022/04/10 06:16:58;;;;;;;5.13;4.65;;;;;;;4.56;100.00;96574.09;5064793;28;20067;-46
2022/04/10 06:19:28;;;;;;;4.68;4.28;;;;;;;4.89;100.00;96578.78;5065132;28;20083;-45
2022/04/10 06:21:56;;;;;;;5.35;4.45;;;;;;;4.94;100.00;96579.28;5062434;28;20065;-45
2022/04/10 06:24:27;;;;;;;5.93;5.03;;;;;;;5.05;100.00;96576.75;5065072;28;20060;-50
2022/04/10 06:26:55;;;;;;;5.47;4.97;;;;;;;5.29;100.00;96584.63;5071298;28;20067;-44
2022/04/10 06:29:23;;;;;;;8.00;5.10;;;;;;;5.21;100.00;96587.81;5067875;28;20063;-50
2022/04/10 06:31:52;;;;;;;6.05;5.40;;;;;;;5.44;100.00;96588.78;5063737;28;20068;-47
2022/04/10 06:34:20;;;;;;;7.60;4.68;;;;;;;5.50;100.00;96597.94;5070349;28;20504;-46
2022/04/10 06:36:50;;;;;;;6.15;4.88;;;;;;;5.40;100.00;96605.66;5064998;28;20135;-48
2022/04/10 06:39:18;;;;;;;5.03;4.53;;;;;;;5.20;100.00;96593.16;5076347;28;20521;-51
2022/04/10 06:41:46;;;;;;;8.13;4.72;;;;;;;5.19;100.00;96591.47;5069988;28;20064;-45
2022/04/10 06:44:15;;;;;;;7.47;5.28;;;;;;;5.37;100.00;96603.25;5069225;28;20542;-45
2022/04/10 06:46:43;;;;;;;5.15;4.65;;;;;;;5.31;100.00;96603.69;5064756;28;20091;-50
2022/04/10 06:49:12;;;;;;;6.88;5.70;;;;;;;5.57;100.00;96609.66;5063400;28;20080;-44
2022/04/10 06:51:40;;;;;;;5.20;4.68;;;;;;;5.61;100.00;96607.66;5067454;28;20069;-47
2022/04/10 06:54:09;;;;;;;5.70;4.82;;;;;;;5.69;100.00;96606.16;5070385;28;21383;-46
2022/04/10 06:56:38;;;;;;;6.25;4.63;;;;;;;5.16;100.00;96604.75;5069506;28;20581;-48
2022/04/10 06:59:06;;;;;;;9.20;5.75;;;;;;;5.52;100.00;96616.16;5069777;28;20443;-48
2022/04/10 07:01:34;;;;;;;7.80;5.35;;;;;;;5.83;100.00;96614.78;5064681;28;20187;-48
2022/04/10 07:04:06;;;;;;;5.65;4.40;;;;;;;6.04;100.00;96615.03;5067758;28;20104;-49
2022/04/10 07:06:34;;;;;;;7.80;4.78;;;;;;;5.97;100.00;96608.59;5061287;28;20075;-46
2022/04/10 07:09:02;;;;;;;5.18;4.47;;;;;;;6.16;100.00;96612.34;5066400;28;20080;-48
2022/04/10 07:11:32;;;;;;;5.65;4.18;;;;;;;6.47;100.00;96624.94;5068503;28;20090;-45
2022/04/10 07:14:01;;;;;;;6.85;4.60;;;;;;;6.45;100.00;96616.38;5067583;28;20072;-47
2022/04/10 07:16:29;;;;;;;5.13;4.07;;;;;;;6.17;100.00;96616.63;5072613;28;20072;-44
2022/04/10 07:18:57;;;;;;;4.75;3.65;;;;;;;6.58;100.00;96622.34;5071155;28;20080;-49
2022/04/10 07:24:09;;;;;;;5.68;4.57;;;;;;;6.59;100.00;96624.03;5069642;28;20620;-47
2022/04/10 07:26:39;;;;;;;4.13;3.75;;;;;;;6.50;100.00;96619.47;5070933;28;20056;-49
2022/04/10 07:29:10;;;;;;;5.05;4.45;;;;;;;6.72;100.00;96622.16;5067368;28;20492;-50
2022/04/10 07:31:38;;;;;;;5.97;5.07;;;;;;;7.00;100.00;96617.41;5068388;28;20309;-48
2022/04/10 07:34:07;;;;;;;6.55;4.53;;;;;;;6.93;100.00;96622.28;5069084;28;20076;-48
2022/04/10 07:36:35;;;;;;;6.80;5.30;;;;;;;7.44;100.00;96632.28;5069938;28;20080;-47
2022/04/10 07:39:03;;;;;;;5.75;4.68;;;;;;;7.49;100.00;96626.69;5063691;28;20064;-49
2022/04/10 07:41:31;;;;;;;7.10;4.70;;;;;;;7.73;100.00;96631.75;5070401;28;20064;-47
2022/04/10 07:44:01;;;;;;;5.25;4.07;;;;;;;7.66;100.00;96627.97;5074263;28;20153;-51
2022/04/10 07:49:15;;;;;;;6.47;4.78;;;;;;;7.84;100.00;96629.97;5068812;28;20080;-46
2022/04/10 07:51:43;;;;;;;5.95;4.88;;;;;;;7.56;100.00;96641.81;5063114;28;20056;-47
2022/04/10 07:54:12;;;;;;;5.93;4.10;;;;;;;7.53;100.00;96635.97;5063504;28;20068;-51
2022/04/10 07:56:41;;;;;;;5.05;4.45;;;;;;;7.64;100.00;96641.22;5063466;28;20699;-48
2022/04/10 07:59:10;;;;;;;6.45;4.22;;;;;;;7.61;100.00;96644.91;5064961;28;20045;-48
2022/04/10 08:01:39;;;;;;;5.00;3.67;;;;;;;7.51;100.00;96649.22;5067014;28;20076;-53
2022/04/10 08:04:07;;;;;;;8.07;4.93;;;;;;;7.32;100.00;96641.13;5068055;28;20091;-50
2022/04/10 08:06:35;;;;;;;4.55;3.92;;;;;;;7.26;100.00;96652.94;5063166;28;20549;-45
2022/04/10 08:09:03;;;;;;;4.70;4.03;;;;;;;7.28;100.00;96664.13;5046144;28;20080;-47
2022/04/10 08:11:32;;;;;;;8.35;4.25;;;;;;;7.33;100.00;96659.38;5039251;28;20068;-49
2022/04/10 08:14:00;;;;;;;5.57;3.78;;;;;;;7.35;100.00;96669.75;5042801;28;20065;-50
2022/04/10 08:16:30;;;;;;;5.47;4.18;;;;;;;7.42;100.00;96664.84;5043527;28;20534;-48
2022/04/10 08:18:58;;;;;;;4.80;3.73;;;;;;;7.37;100.00;96675.72;5040953;28;20071;-45
2022/04/10 08:21:27;;;;;;;4.22;3.58;;;;;;;7.43;100.00;96682.25;5040244;28;20897;-49
2022/04/10 08:23:55;;;;;;;8.10;3.83;;;;;;;7.28;100.00;96679.88;5058482;28;20457;-44
2022/04/10 08:26:23;;;;;;;6.30;4.65;;;;;;;7.76;100.00;96671.72;5061339;28;20079;-48
2022/04/10 08:28:52;;;;;;;4.85;4.32;;;;;;;7.35;100.00;96681.06;5064455;28;20462;-47
2022/04/10 08:31:21;;;;;;;4.97;3.80;;;;;;;7.47;100.00;96687.16;5064630;28;20501;-52
2022/04/10 08:33:52;;;;;;;6.78;4.38;;;;;;;7.37;100.00;96678.34;5065164;28;20720;-53
2022/04/10 08:36:20;;;;;;;6.10;4.40;;;;;;;7.49;100.00;96687.03;5062787;28;20076;-48
2022/04/10 08:38:49;;;;;;;4.70;3.78;;;;;;;7.17;100.00;96684.28;5064659;28;20135;-46
2022/04/10 08:41:18;;;;;;;4.20;3.80;;;;;;;7.40;100.00;96685.09;5064208;28;20075;-52
2022/04/10 08:43:46;;;;;;;6.97;4.35;;;;;;;7.56;100.00;96681.16;5075685;28;20072;-50
2022/04/10 08:46:15;;;;;;;5.63;4.28;;;;;;;7.47;100.00;96681.91;5071409;28;20521;-48
2022/04/10 08:48:44;;;;;;;6.25;4.60;;;;;;;7.80;100.00;96678.41;5060583;28;20071;-50
2022/04/10 08:51:14;;;;;;;5.68;4.03;;;;;;;7.81;100.00;96677.47;5067663;28;20052;-49
2022/04/10 08:53:43;;;;;;;4.93;3.97;;;;;;;7.80;100.00;96682.81;5070046;28;20123;-49
2022/04/10 08:56:11;;;;;;;7.22;4.40;;;;;;;8.48;100.00;96670.34;5069344;28;20067;-47
2022/04/10 08:58:39;;;;;;;4.95;4.45;;;;;;;8.58;100.00;96675.69;5066172;28;20506;-49
2022/04/10 09:01:10;;;;;;;4.72;3.72;;;;;;;8.85;100.00;96672.56;5068779;28;20092;-50
2022/04/10 09:03:39;;;;;;;5.63;3.65;;;;;;;8.44;100.00;96679.44;5070986;28;20065;-51
2022/04/10 09:06:08;;;;;;;4.63;4.07;;;;;;;8.48;100.00;96676.44;5065390;28;20072;-50
2022/04/10 09:08:38;;;;;;;9.88;4.45;;;;;;;9.07;100.00;96675.03;5068013;28;20037;-49
2022/04/10 09:11:08;;;;;;;5.45;3.20;;;;;;;8.61;100.00;96676.28;5070669;28;20071;-52
2022/04/10 09:13:38;;;;;;;4.97;4.15;;;;;;;9.43;100.00;96676.34;5066310;28;20083;-51
2022/04/10 09:16:09;;;;;;;5.57;4.70;;;;;;;9.53;100.00;96673.72;5066089;28;20087;-51
2022/04/10 09:19:00;;;;;;;5.70;3.22;;;;;;;8.97;100.00;96672.34;5065008;28;20505;-49
2022/04/10 09:21:30;;;;;;;4.45;3.22;;;;;;;9.14;100.00;96670.91;5059721;28;20064;-47
2022/04/10 09:24:05;;;;;;;4.78;3.83;;;;;;;8.95;100.00;96668.19;5057595;28;20080;-47
2022/04/10 09:26:46;;;;;;;3.60;3.30;;;;;;;8.77;100.00;96676.66;5051605;28;20072;-51
2022/04/10 09:29:15;;;;;;;3.63;3.33;;;;;;;9.29;100.00;96674.06;5041821;28;20080;-49
2022/04/10 09:31:44;;;;;;;5.25;4.18;;;;;;;9.96;100.00;96662.91;5067309;28;20556;-53
2022/04/10 09:34:15;;;;;;;6.55;3.80;;;;;;;9.23;100.00;96662.25;5070687;28;20079;-54
2022/04/10 09:37:06;;;;;;;6.05;4.30;;;;;;;9.34;100.00;96660.50;5068164;28;20449;-53
2022/04/10 09:39:37;;;;;;;5.70;2.65;;;;;;;9.75;100.00;96660.38;5062384;28;20068;-53
2022/04/10 09:42:06;;;;;;;;;;;;;;;10.19;100.00;96652.97;5069937;28;20090;-48
2022/04/10 09:44:35;;;;;;;4.43;3.40;;;;;;;10.01;100.00;96644.03;5068952;28;19964;-48
2022/04/10 09:47:06;;;;;;;4.32;2.92;;;;;;;9.18;87.02;96656.53;5068929;28;20067;-48
2022/04/10 09:49:35;;;;;;;4.15;3.70;;;;;;;9.07;100.00;96664.50;5068111;28;20084;-50
2022/04/10 09:52:06;;;;;;;4.80;3.33;;;;;;;8.31;100.00;96671.69;5068618;28;20122;-47
2022/04/10 09:54:39;;;;;;;3.45;2.60;;;;;;;7.51;100.00;96672.00;5064581;28;20076;-52
2022/04/10 09:57:10;;;;;;;4.63;3.35;;;;;;;7.68;100.00;96661.00;5067876;28;20075;-51
2022/04/10 09:59:42;;;;;;;4.95;3.65;;;;;;;7.55;100.00;96670.81;5069514;28;20079;-49
2022/04/10 10:02:11;;;;;;;5.35;3.72;;;;;;;7.55;100.00;96679.50;5068296;28;20084;-50
2022/04/10 10:04:40;;;;;;;3.00;2.80;;;;;;;6.92;100.00;96693.16;5071082;28;20473;-52
2022/04/10 10:07:10;;;;;;;6.15;4.18;;;;;;;5.63;100.00;96718.25;5069181;28;20060;-53
2022/04/10 10:09:40;;;;;;;4.60;3.88;;;;;;;4.76;100.00;96738.97;5067494;28;20064;-55
2022/04/10 10:12:09;;;;;;;5.35;3.75;;;;;;;4.40;100.00;96746.59;5068719;28;20094;-54
2022/04/10 10:14:39;;;;;;;5.93;3.90;;;;;;;4.51;100.00;96726.72;5068517;28;20095;-55
2022/04/10 10:17:08;;;;;;;6.78;4.72;;;;;;;5.22;100.00;96714.94;5068732;28;20076;-53
2022/04/10 10:19:38;;;;;;;9.23;5.57;;;;;;;5.73;100.00;96703.59;5068521;28;20091;-53
2022/04/10 10:22:07;;;;;;;7.68;5.60;;;;;;;6.20;100.00;96694.13;5068852;28;20107;-52
2022/04/10 10:24:44;;;;;;;6.60;5.43;;;;;;;6.81;100.00;96691.34;5068911;28;20071;-54
2022/04/10 10:27:28;;;;;;;8.48;5.00;;;;;;;7.22;100.00;96685.59;5067855;28;20072;-51
2022/04/10 10:30:07;;;;;;;7.78;5.10;;;;;;;7.76;100.00;96689.28;5067696;28;20651;-53
2022/04/10 10:32:41;;;;;;;6.05;5.00;;;;;;;8.10;100.00;96684.78;5066423;28;20083;-53
2022/04/10 10:35:11;;;;;;;5.20;4.72;;;;;;;8.15;100.00;96679.16;5070339;28;20068;-53
2022/04/10 10:37:50;;;;;;;;;;;;;;;8.03;100.00;96667.84;5066715;28;20080;-53
2022/04/10 10:40:20;;;;;;;5.15;4.32;;;;;;;8.20;100.00;96667.31;5062145;28;19971;-51
2022/04/10 10:42:50;;;;;;;3.50;3.20;;;;;;;7.87;100.00;96675.28;5062296;28;20510;-49
2022/04/10 10:45:37;;;;;;;4.35;3.80;;;;;;;7.98;100.00;96664.75;5067887;28;20072;-51
2022/04/10 10:48:26;;;;;;;4.05;3.50;;;;;;;7.61;100.00;96670.31;5061942;28;20091;-53
2022/04/10 10:50:55;;;;;;;5.68;3.65;;;;;;;7.92;100.00;96662.63;5067815;28;20067;-53
2022/04/10 10:53:48;;;;;;;8.07;3.80;;;;;;;8.42;100.00;96647.19;5068107;28;20071;-55
2022/04/10 10:56:20;;;;;;;4.50;3.50;;;;;;;9.07;100.00;96661.06;5050019;28;20064;-54
2022/04/10 10:59:36;;;;;;;3.53;3.22;;;;;;;9.05;100.00;96650.69;5068354;28;20114;-54
2022/04/10 11:02:06;;;;;;;5.40;3.67;;;;;;;9.20;100.00;96653.78;5028945;28;20067;-51
2022/04/10 11:04:36;;;;;;;3.42;3.13;;;;;;;8.47;100.00;96653.75;5069616;28;20106;-54
2022/04/10 11:07:15;;;;;;;2.60;2.40;;;;;;;8.23;100.00;96661.00;5065412;28;20085;-53
2022/04/10 11:09:54;;;;;;;6.13;4.43;;;;;;;7.94;100.00;96669.41;5066798;28;20075;-55
2022/04/10 11:12:30;;;;;;;3.30;2.88;;;;;;;8.10;100.00;96671.66;5062193;28;20670;-53
2022/04/10 11:15:01;;;;;;;3.38;2.88;;;;;;;8.18;100.00;96671.03;5068131;28;20076;-53
2022/04/10 11:17:31;;;;;;;5.15;3.72;;;;;;;8.99;100.00;96672.22;5067172;28;20060;-50
2022/04/10 11:20:01;;;;;;;4.03;3.40;;;;;;;9.38;100.00;96662.72;5067414;28;20072;-51
2022/04/10 11:22:34;;;;;;;3.38;3.08;;;;;;;9.20;100.00;96666.94;5067866;28;20473;-53
2022/04/10 11:25:06;;;;;;;5.93;3.60;;;;;;;8.74;100.00;96666.41;5068486;28;20084;-50
2022/04/10 11:27:43;;;;;;;5.25;3.70;;;;;;;9.15;100.00;96669.97;5064176;28;20075;-51
2022/04/10 11:30:16;;;;;;;4.32;3.30;;;;;;;9.15;100.00;96672.59;5066681;28;20083;-53
2022/04/10 11:32:45;;;;;;;2.83;2.58;;;;;;;8.32;100.00;96666.31;5062704;28;20124;-48
2022/04/10 11:35:15;;;;;;;4.15;2.95;;;;;;;7.82;100.00;96681.75;5069473;28;20086;-55
2022/04/10 11:37:47;;;;;;;4.95;3.03;;;;;;;7.57;100.00;96690.72;5067544;28;20057;-51
2022/04/10 11:40:19;;;;;;;4.57;2.85;;;;;;;7.80;100.00;96681.03;5068182;28;20076;-51
2022/04/10 11:42:49;;;;;;;4.30;3.50;;;;;;;8.66;100.00;96689.03;5064174;28;20103;-53
2022/04/10 11:45:18;;;;;;;4.97;3.60;;;;;;;8.82;100.00;96684.16;5067476;28;20060;-52
2022/04/10 11:47:48;;;;;;;3.70;3.05;;;;;;;9.04;100.00;96683.19;5065419;28;20766;-48
2022/04/10 11:50:18;;;;;;;3.50;3.20;;;;;;;9.28;100.00;96682.91;5067201;28;20072;-53